sensor_id;sensor_type;location;lat;lon;timestamp;P1;durP1;ratioP1;P2;durP2;ratioP2
12124;SDS011;6126;57.908;16.490;2022-12-20T00:02:16;8.18;;;5.43;;
12124;SDS011;6126;57.908;16.490;2022-12-20T00:04:42;12.93;;;5.90;;
12124;SDS011;6126;57.908;16.490;2022-12-20T00:07:08;11.65;;;6.68;;
12124;SDS011;6126;57.908;16.490;2022-12-20T00:09:34;12.38;;;6.03;;
12124;SDS011;6126;57.908;16.490;2022-12-20T00:12:00;14.40;;;5.40;;
12124;SDS011;6126;57.908;16.490;2022-12-20T00:14:26;9.00;;;5.90;;
12124;SDS011;6126;57.908;16.490;2022-12-20T00:16:52;11.38;;;5.63;;
12124;SDS011;6126;57.908;16.490;2022-12-20T00:19:18;10.73;;;5.15;;
12124;SDS011;6126;57.908;16.490;2022-12-20T00:21:44;10.23;;;5.75;;
12124;SDS011;6126;57.908;16.490;2022-12-20T00:24:09;10.13;;;6.15;;
12124;SDS011;6126;57.908;16.490;2022-12-20T00:26:36;8.30;;;5.20;;
12124;SDS011;6126;57.908;16.490;2022-12-20T00:29:03;9.50;;;5.43;;
12124;SDS011;6126;57.908;16.490;2022-12-20T00:31:30;10.32;;;5.18;;
12124;SDS011;6126;57.908;16.490;2022-12-20T00:33:57;8.82;;;5.22;;
12124;SDS011;6126;57.908;16.490;2022-12-20T00:36:25;10.30;;;5.10;;
12124;SDS011;6126;57.908;16.490;2022-12-20T00:38:54;9.82;;;5.85;;
12124;SDS011;6126;57.908;16.490;2022-12-20T00:41:25;8.43;;;4.72;;
12124;SDS011;6126;57.908;16.490;2022-12-20T00:43:53;9.15;;;5.18;;
12124;SDS011;6126;57.908;16.490;2022-12-20T00:46:20;9.57;;;5.50;;
12124;SDS011;6126;57.908;16.490;2022-12-20T00:48:47;10.48;;;5.78;;
12124;SDS011;6126;57.908;16.490;2022-12-20T00:51:15;10.38;;;5.57;;
12124;SDS011;6126;57.908;16.490;2022-12-20T00:53:43;9.73;;;5.65;;
12124;SDS011;6126;57.908;16.490;2022-12-20T00:56:10;9.13;;;4.90;;
12124;SDS011;6126;57.908;16.490;2022-12-20T00:58:37;8.30;;;4.55;;
12124;SDS011;6126;57.908;16.490;2022-12-20T01:01:12;10.77;;;5.38;;
12124;SDS011;6126;57.908;16.490;2022-12-20T01:03:48;10.02;;;5.00;;
12124;SDS011;6126;57.908;16.490;2022-12-20T01:06:16;7.57;;;4.68;;
12124;SDS011;6126;57.908;16.490;2022-12-20T01:08:43;6.60;;;4.25;;
12124;SDS011;6126;57.908;16.490;2022-12-20T01:13:45;6.70;;;4.25;;
12124;SDS011;6126;57.908;16.490;2022-12-20T01:16:17;8.00;;;4.90;;
12124;SDS011;6126;57.908;16.490;2022-12-20T01:18:53;7.13;;;4.35;;
12124;SDS011;6126;57.908;16.490;2022-12-20T01:21:21;10.55;;;5.00;;
12124;SDS011;6126;57.908;16.490;2022-12-20T01:23:49;8.10;;;4.03;;
12124;SDS011;6126;57.908;16.490;2022-12-20T01:26:16;7.00;;;3.92;;
12124;SDS011;6126;57.908;16.490;2022-12-20T01:28:46;8.25;;;3.72;;
12124;SDS011;6126;57.908;16.490;2022-12-20T01:31:16;7.25;;;3.95;;
12124;SDS011;6126;57.908;16.490;2022-12-20T01:33:44;5.05;;;3.97;;
12124;SDS011;6126;57.908;16.490;2022-12-20T01:36:16;4.55;;;3.45;;
12124;SDS011;6126;57.908;16.490;2022-12-20T01:38:55;5.47;;;3.83;;
12124;SDS011;6126;57.908;16.490;2022-12-20T01:41:26;6.10;;;3.42;;
12124;SDS011;6126;57.908;16.490;2022-12-20T01:44:04;5.15;;;3.50;;
12124;SDS011;6126;57.908;16.490;2022-12-20T01:46:51;5.43;;;3.13;;
12124;SDS011;6126;57.908;16.490;2022-12-20T01:49:29;4.85;;;3.25;;
12124;SDS011;6126;57.908;16.490;2022-12-20T01:52:01;4.57;;;2.83;;
12124;SDS011;6126;57.908;16.490;2022-12-20T01:54:40;6.47;;;3.58;;
12124;SDS011;6126;57.908;16.490;2022-12-20T01:57:17;3.50;;;2.60;;
12124;SDS011;6126;57.908;16.490;2022-12-20T02:00:00;2.80;;;2.50;;
12124;SDS011;6126;57.908;16.490;2022-12-20T02:02:28;3.00;;;2.38;;
12124;SDS011;6126;57.908;16.490;2022-12-20T02:04:56;2.85;;;2.33;;
12124;SDS011;6126;57.908;16.490;2022-12-20T02:07:25;5.03;;;2.45;;
12124;SDS011;6126;57.908;16.490;2022-12-20T02:09:55;3.10;;;2.10;;
12124;SDS011;6126;57.908;16.490;2022-12-20T02:12:25;2.97;;;2.15;;
12124;SDS011;6126;57.908;16.490;2022-12-20T02:32:41;2.38;;;1.67;;
12124;SDS011;6126;57.908;16.490;2022-12-20T02:35:26;2.67;;;1.42;;
12124;SDS011;6126;57.908;16.490;2022-12-20T02:37:57;1.58;;;1.27;;
12124;SDS011;6126;57.908;16.490;2022-12-20T02:40:27;3.40;;;1.75;;
12124;SDS011;6126;57.908;16.490;2022-12-20T02:43:02;1.33;;;1.13;;
12124;SDS011;6126;57.908;16.490;2022-12-20T02:45:52;1.77;;;1.30;;
12124;SDS011;6126;57.908;16.490;2022-12-20T02:48:22;1.77;;;1.60;;
12124;SDS011;6126;57.908;16.490;2022-12-20T02:50:53;1.05;;;0.93;;
12124;SDS011;6126;57.908;16.490;2022-12-20T02:53:23;1.77;;;1.23;;
12124;SDS011;6126;57.908;16.490;2022-12-20T02:58:28;1.20;;;0.88;;
12124;SDS011;6126;57.908;16.490;2022-12-20T03:01:29;1.75;;;1.50;;
12124;SDS011;6126;57.908;16.490;2022-12-20T03:04:01;1.10;;;1.00;;
12124;SDS011;6126;57.908;16.490;2022-12-20T03:06:29;1.45;;;1.00;;
12124;SDS011;6126;57.908;16.490;2022-12-20T03:08:55;1.33;;;1.00;;
12124;SDS011;6126;57.908;16.490;2022-12-20T03:11:21;1.65;;;1.08;;
12124;SDS011;6126;57.908;16.490;2022-12-20T03:13:47;1.30;;;1.10;;
12124;SDS011;6126;57.908;16.490;2022-12-20T03:16:13;1.90;;;1.38;;
12124;SDS011;6126;57.908;16.490;2022-12-20T03:18:39;1.58;;;0.82;;
12124;SDS011;6126;57.908;16.490;2022-12-20T03:21:05;1.27;;;1.02;;
12124;SDS011;6126;57.908;16.490;2022-12-20T03:23:31;0.95;;;0.82;;
12124;SDS011;6126;57.908;16.490;2022-12-20T03:25:57;1.90;;;0.90;;
12124;SDS011;6126;57.908;16.490;2022-12-20T03:28:23;1.50;;;1.05;;
12124;SDS011;6126;57.908;16.490;2022-12-20T03:30:49;1.20;;;1.10;;
12124;SDS011;6126;57.908;16.490;2022-12-20T03:33:15;1.13;;;0.98;;
12124;SDS011;6126;57.908;16.490;2022-12-20T03:35:41;1.80;;;1.20;;
12124;SDS011;6126;57.908;16.490;2022-12-20T03:38:07;1.33;;;1.23;;
12124;SDS011;6126;57.908;16.490;2022-12-20T03:40:33;1.13;;;1.00;;
12124;SDS011;6126;57.908;16.490;2022-12-20T03:42:58;1.73;;;1.40;;
12124;SDS011;6126;57.908;16.490;2022-12-20T03:45:24;1.55;;;1.20;;
12124;SDS011;6126;57.908;16.490;2022-12-20T03:47:50;1.40;;;1.10;;
12124;SDS011;6126;57.908;16.490;2022-12-20T03:50:16;1.60;;;1.00;;
12124;SDS011;6126;57.908;16.490;2022-12-20T03:52:42;1.20;;;1.10;;
12124;SDS011;6126;57.908;16.490;2022-12-20T03:55:08;1.30;;;0.93;;
12124;SDS011;6126;57.908;16.490;2022-12-20T03:57:36;1.48;;;1.10;;
12124;SDS011;6126;57.908;16.490;2022-12-20T04:00:03;1.42;;;1.10;;
12124;SDS011;6126;57.908;16.490;2022-12-20T04:02:30;1.42;;;1.10;;
12124;SDS011;6126;57.908;16.490;2022-12-20T04:04:56;1.38;;;1.10;;
12124;SDS011;6126;57.908;16.490;2022-12-20T04:07:22;1.20;;;1.10;;
12124;SDS011;6126;57.908;16.490;2022-12-20T04:09:48;1.73;;;1.00;;
12124;SDS011;6126;57.908;16.490;2022-12-20T04:12:14;1.35;;;1.05;;
12124;SDS011;6126;57.908;16.490;2022-12-20T04:14:40;1.65;;;1.17;;
12124;SDS011;6126;57.908;16.490;2022-12-20T04:17:06;2.22;;;1.33;;
12124;SDS011;6126;57.908;16.490;2022-12-20T04:19:31;1.10;;;1.00;;
12124;SDS011;6126;57.908;16.490;2022-12-20T04:21:57;1.13;;;0.90;;
12124;SDS011;6126;57.908;16.490;2022-12-20T04:24:23;1.77;;;1.50;;
12124;SDS011;6126;57.908;16.490;2022-12-20T04:26:49;1.13;;;1.02;;
12124;SDS011;6126;57.908;16.490;2022-12-20T04:29:15;1.20;;;0.98;;
12124;SDS011;6126;57.908;16.490;2022-12-20T04:31:41;1.23;;;1.13;;
12124;SDS011;6126;57.908;16.490;2022-12-20T04:34:07;1.50;;;1.00;;
12124;SDS011;6126;57.908;16.490;2022-12-20T04:36:32;2.58;;;0.93;;
12124;SDS011;6126;57.908;16.490;2022-12-20T04:38:58;1.27;;;1.02;;
12124;SDS011;6126;57.908;16.490;2022-12-20T04:41:24;1.23;;;1.13;;
12124;SDS011;6126;57.908;16.490;2022-12-20T04:43:52;1.05;;;0.95;;
12124;SDS011;6126;57.908;16.490;2022-12-20T04:46:21;1.00;;;0.95;;
12124;SDS011;6126;57.908;16.490;2022-12-20T04:48:49;1.00;;;0.85;;
12124;SDS011;6126;57.908;16.490;2022-12-20T04:51:16;1.40;;;1.00;;
12124;SDS011;6126;57.908;16.490;2022-12-20T04:53:42;1.40;;;1.00;;
12124;SDS011;6126;57.908;16.490;2022-12-20T04:56:15;1.05;;;0.95;;
12124;SDS011;6126;57.908;16.490;2022-12-20T04:58:45;1.10;;;1.00;;
12124;SDS011;6126;57.908;16.490;2022-12-20T05:01:13;1.13;;;1.00;;
12124;SDS011;6126;57.908;16.490;2022-12-20T05:03:40;1.20;;;1.10;;
12124;SDS011;6126;57.908;16.490;2022-12-20T05:06:07;1.13;;;0.82;;
12124;SDS011;6126;57.908;16.490;2022-12-20T05:08:33;1.67;;;1.30;;
12124;SDS011;6126;57.908;16.490;2022-12-20T05:10:59;1.23;;;1.13;;
12124;SDS011;6126;57.908;16.490;2022-12-20T05:13:25;1.30;;;1.15;;
12124;SDS011;6126;57.908;16.490;2022-12-20T05:15:52;1.30;;;1.20;;
12124;SDS011;6126;57.908;16.490;2022-12-20T05:18:20;1.15;;;1.05;;
12124;SDS011;6126;57.908;16.490;2022-12-20T05:20:47;1.20;;;1.10;;
12124;SDS011;6126;57.908;16.490;2022-12-20T05:23:34;3.15;;;1.30;;
12124;SDS011;6126;57.908;16.490;2022-12-20T05:26:18;1.77;;;1.27;;
12124;SDS011;6126;57.908;16.490;2022-12-20T05:28:45;1.08;;;0.95;;
12124;SDS011;6126;57.908;16.490;2022-12-20T05:31:11;0.95;;;0.85;;
12124;SDS011;6126;57.908;16.490;2022-12-20T05:33:37;2.03;;;1.38;;
12124;SDS011;6126;57.908;16.490;2022-12-20T05:36:03;1.33;;;1.20;;
12124;SDS011;6126;57.908;16.490;2022-12-20T05:38:29;1.13;;;1.00;;
12124;SDS011;6126;57.908;16.490;2022-12-20T05:40:55;1.05;;;0.88;;
12124;SDS011;6126;57.908;16.490;2022-12-20T05:43:21;1.15;;;0.90;;
12124;SDS011;6126;57.908;16.490;2022-12-20T05:45:48;1.00;;;0.85;;
12124;SDS011;6126;57.908;16.490;2022-12-20T05:48:16;1.85;;;1.00;;
12124;SDS011;6126;57.908;16.490;2022-12-20T05:50:44;1.15;;;1.00;;
12124;SDS011;6126;57.908;16.490;2022-12-20T05:53:11;1.63;;;1.23;;
12124;SDS011;6126;57.908;16.490;2022-12-20T05:55:46;1.45;;;1.05;;
12124;SDS011;6126;57.908;16.490;2022-12-20T05:58:15;1.25;;;1.10;;
12124;SDS011;6126;57.908;16.490;2022-12-20T06:00:41;1.60;;;1.10;;
12124;SDS011;6126;57.908;16.490;2022-12-20T06:03:08;1.58;;;1.13;;
12124;SDS011;6126;57.908;16.490;2022-12-20T06:05:39;1.23;;;0.93;;
12124;SDS011;6126;57.908;16.490;2022-12-20T06:08:07;1.52;;;1.23;;
12124;SDS011;6126;57.908;16.490;2022-12-20T06:10:34;1.88;;;1.40;;
12124;SDS011;6126;57.908;16.490;2022-12-20T06:13:00;1.77;;;1.00;;
12124;SDS011;6126;57.908;16.490;2022-12-20T06:15:28;1.38;;;1.13;;
12124;SDS011;6126;57.908;16.490;2022-12-20T06:17:55;1.40;;;0.90;;
12124;SDS011;6126;57.908;16.490;2022-12-20T06:20:21;0.90;;;0.90;;
12124;SDS011;6126;57.908;16.490;2022-12-20T06:22:47;1.10;;;1.00;;
12124;SDS011;6126;57.908;16.490;2022-12-20T06:25:13;1.38;;;1.00;;
12124;SDS011;6126;57.908;16.490;2022-12-20T06:27:39;1.02;;;0.93;;
12124;SDS011;6126;57.908;16.490;2022-12-20T06:30:07;1.92;;;1.15;;
12124;SDS011;6126;57.908;16.490;2022-12-20T06:32:34;1.75;;;0.90;;
12124;SDS011;6126;57.908;16.490;2022-12-20T06:35:00;1.77;;;1.15;;
12124;SDS011;6126;57.908;16.490;2022-12-20T06:37:26;1.40;;;1.15;;
12124;SDS011;6126;57.908;16.490;2022-12-20T06:39:52;1.08;;;0.93;;
12124;SDS011;6126;57.908;16.490;2022-12-20T06:42:18;1.10;;;0.90;;
12124;SDS011;6126;57.908;16.490;2022-12-20T06:44:44;0.80;;;0.75;;
12124;SDS011;6126;57.908;16.490;2022-12-20T06:47:10;1.02;;;0.80;;
12124;SDS011;6126;57.908;16.490;2022-12-20T06:49:36;1.48;;;1.27;;
12124;SDS011;6126;57.908;16.490;2022-12-20T06:52:02;1.10;;;0.85;;
12124;SDS011;6126;57.908;16.490;2022-12-20T06:54:28;1.27;;;0.98;;
12124;SDS011;6126;57.908;16.490;2022-12-20T06:56:54;1.63;;;1.10;;
12124;SDS011;6126;57.908;16.490;2022-12-20T06:59:20;1.10;;;0.90;;
12124;SDS011;6126;57.908;16.490;2022-12-20T07:01:46;1.02;;;0.82;;
12124;SDS011;6126;57.908;16.490;2022-12-20T07:04:12;1.00;;;0.73;;
12124;SDS011;6126;57.908;16.490;2022-12-20T07:06:37;1.38;;;1.00;;
12124;SDS011;6126;57.908;16.490;2022-12-20T07:09:03;0.90;;;0.80;;
12124;SDS011;6126;57.908;16.490;2022-12-20T07:11:29;0.77;;;0.77;;
12124;SDS011;6126;57.908;16.490;2022-12-20T07:13:55;0.88;;;0.80;;
12124;SDS011;6126;57.908;16.490;2022-12-20T07:16:22;0.82;;;0.70;;
12124;SDS011;6126;57.908;16.490;2022-12-20T07:18:51;1.00;;;0.82;;
12124;SDS011;6126;57.908;16.490;2022-12-20T07:21:19;0.80;;;0.80;;
12124;SDS011;6126;57.908;16.490;2022-12-20T07:23:46;1.08;;;0.98;;
12124;SDS011;6126;57.908;16.490;2022-12-20T07:26:12;1.17;;;0.95;;
12124;SDS011;6126;57.908;16.490;2022-12-20T07:28:39;0.68;;;0.68;;
12124;SDS011;6126;57.908;16.490;2022-12-20T07:31:06;0.82;;;0.82;;
12124;SDS011;6126;57.908;16.490;2022-12-20T07:33:32;0.85;;;0.80;;
12124;SDS011;6126;57.908;16.490;2022-12-20T07:35:59;0.70;;;0.70;;
12124;SDS011;6126;57.908;16.490;2022-12-20T07:38:34;0.82;;;0.80;;
12124;SDS011;6126;57.908;16.490;2022-12-20T07:41:00;1.33;;;1.10;;
12124;SDS011;6126;57.908;16.490;2022-12-20T07:43:40;1.52;;;1.00;;
12124;SDS011;6126;57.908;16.490;2022-12-20T07:46:07;1.00;;;0.70;;
12124;SDS011;6126;57.908;16.490;2022-12-20T07:48:35;1.05;;;0.80;;
12124;SDS011;6126;57.908;16.490;2022-12-20T07:51:06;1.45;;;0.88;;
12124;SDS011;6126;57.908;16.490;2022-12-20T07:53:39;1.15;;;0.90;;
12124;SDS011;6126;57.908;16.490;2022-12-20T07:56:14;1.40;;;0.80;;
12124;SDS011;6126;57.908;16.490;2022-12-20T07:58:45;1.10;;;1.00;;
12124;SDS011;6126;57.908;16.490;2022-12-20T08:01:12;0.80;;;0.77;;
12124;SDS011;6126;57.908;16.490;2022-12-20T08:03:40;1.13;;;0.70;;
12124;SDS011;6126;57.908;16.490;2022-12-20T08:06:11;0.70;;;0.70;;
12124;SDS011;6126;57.908;16.490;2022-12-20T08:08:40;0.98;;;0.77;;
12124;SDS011;6126;57.908;16.490;2022-12-20T08:11:13;0.63;;;0.63;;
12124;SDS011;6126;57.908;16.490;2022-12-20T08:13:40;0.70;;;0.70;;
12124;SDS011;6126;57.908;16.490;2022-12-20T08:16:06;0.77;;;0.70;;
12124;SDS011;6126;57.908;16.490;2022-12-20T08:18:32;0.77;;;0.75;;
12124;SDS011;6126;57.908;16.490;2022-12-20T08:20:58;1.42;;;0.80;;
12124;SDS011;6126;57.908;16.490;2022-12-20T08:23:25;0.90;;;0.70;;
12124;SDS011;6126;57.908;16.490;2022-12-20T08:25:51;0.90;;;0.68;;
12124;SDS011;6126;57.908;16.490;2022-12-20T08:28:17;0.90;;;0.70;;
12124;SDS011;6126;57.908;16.490;2022-12-20T08:30:42;0.52;;;0.50;;
12124;SDS011;6126;57.908;16.490;2022-12-20T08:33:08;0.50;;;0.50;;
12124;SDS011;6126;57.908;16.490;2022-12-20T08:35:34;0.65;;;0.57;;
12124;SDS011;6126;57.908;16.490;2022-12-20T08:38:00;0.80;;;0.77;;
12124;SDS011;6126;57.908;16.490;2022-12-20T08:40:26;0.98;;;0.77;;
12124;SDS011;6126;57.908;16.490;2022-12-20T08:42:52;0.57;;;0.50;;
12124;SDS011;6126;57.908;16.490;2022-12-20T08:45:18;0.52;;;0.52;;
12124;SDS011;6126;57.908;16.490;2022-12-20T08:47:44;0.45;;;0.45;;
12124;SDS011;6126;57.908;16.490;2022-12-20T08:50:10;0.85;;;0.60;;
12124;SDS011;6126;57.908;16.490;2022-12-20T08:52:37;0.57;;;0.57;;
12124;SDS011;6126;57.908;16.490;2022-12-20T08:55:04;1.73;;;0.60;;
12124;SDS011;6126;57.908;16.490;2022-12-20T08:57:30;0.50;;;0.50;;
12124;SDS011;6126;57.908;16.490;2022-12-20T08:59:56;0.40;;;0.40;;
12124;SDS011;6126;57.908;16.490;2022-12-20T09:02:22;0.57;;;0.57;;
12124;SDS011;6126;57.908;16.490;2022-12-20T09:04:48;1.17;;;0.60;;
12124;SDS011;6126;57.908;16.490;2022-12-20T09:07:14;0.50;;;0.50;;
12124;SDS011;6126;57.908;16.490;2022-12-20T09:09:40;0.68;;;0.60;;
12124;SDS011;6126;57.908;16.490;2022-12-20T09:12:06;1.13;;;0.75;;
12124;SDS011;6126;57.908;16.490;2022-12-20T09:14:32;0.70;;;0.50;;
12124;SDS011;6126;57.908;16.490;2022-12-20T09:16:58;0.63;;;0.60;;
12124;SDS011;6126;57.908;16.490;2022-12-20T09:19:23;1.02;;;0.60;;
12124;SDS011;6126;57.908;16.490;2022-12-20T09:21:49;0.52;;;0.52;;
12124;SDS011;6126;57.908;16.490;2022-12-20T09:24:15;0.85;;;0.65;;
12124;SDS011;6126;57.908;16.490;2022-12-20T09:26:41;0.50;;;0.50;;
12124;SDS011;6126;57.908;16.490;2022-12-20T09:29:07;0.60;;;0.60;;
12124;SDS011;6126;57.908;16.490;2022-12-20T09:31:33;0.73;;;0.50;;
12124;SDS011;6126;57.908;16.490;2022-12-20T09:33:59;0.75;;;0.63;;
12124;SDS011;6126;57.908;16.490;2022-12-20T09:36:26;0.60;;;0.60;;
12124;SDS011;6126;57.908;16.490;2022-12-20T09:38:54;1.10;;;0.90;;
12124;SDS011;6126;57.908;16.490;2022-12-20T09:43:57;0.63;;;0.63;;
12124;SDS011;6126;57.908;16.490;2022-12-20T09:46:25;0.52;;;0.52;;
12124;SDS011;6126;57.908;16.490;2022-12-20T09:48:52;0.50;;;0.50;;
12124;SDS011;6126;57.908;16.490;2022-12-20T09:57:15;0.70;;;0.60;;
12124;SDS011;6126;57.908;16.490;2022-12-20T09:59:51;0.60;;;0.60;;
12124;SDS011;6126;57.908;16.490;2022-12-20T10:02:22;0.63;;;0.63;;
12124;SDS011;6126;57.908;16.490;2022-12-20T10:04:51;0.55;;;0.52;;
12124;SDS011;6126;57.908;16.490;2022-12-20T10:13:09;0.70;;;0.70;;
12124;SDS011;6126;57.908;16.490;2022-12-20T10:15:59;1.35;;;0.80;;
12124;SDS011;6126;57.908;16.490;2022-12-20T10:19:05;0.60;;;0.57;;
12124;SDS011;6126;57.908;16.490;2022-12-20T10:21:59;0.68;;;0.68;;
12124;SDS011;6126;57.908;16.490;2022-12-20T10:24:30;0.75;;;0.68;;
12124;SDS011;6126;57.908;16.490;2022-12-20T10:27:06;0.82;;;0.80;;
12124;SDS011;6126;57.908;16.490;2022-12-20T10:29:44;0.73;;;0.57;;
12124;SDS011;6126;57.908;16.490;2022-12-20T10:32:17;0.80;;;0.63;;
12124;SDS011;6126;57.908;16.490;2022-12-20T10:34:51;0.95;;;0.70;;
12124;SDS011;6126;57.908;16.490;2022-12-20T10:37:25;0.80;;;0.68;;
12124;SDS011;6126;57.908;16.490;2022-12-20T10:39:51;0.95;;;0.60;;
12124;SDS011;6126;57.908;16.490;2022-12-20T10:42:34;0.80;;;0.80;;
12124;SDS011;6126;57.908;16.490;2022-12-20T10:45:23;0.60;;;0.60;;
12124;SDS011;6126;57.908;16.490;2022-12-20T10:48:00;0.55;;;0.55;;
12124;SDS011;6126;57.908;16.490;2022-12-20T10:51:07;0.68;;;0.68;;
12124;SDS011;6126;57.908;16.490;2022-12-20T10:53:51;0.60;;;0.60;;
12124;SDS011;6126;57.908;16.490;2022-12-20T10:56:26;0.70;;;0.70;;
12124;SDS011;6126;57.908;16.490;2022-12-20T11:01:53;0.95;;;0.80;;
12124;SDS011;6126;57.908;16.490;2022-12-20T11:04:26;1.05;;;0.80;;
12124;SDS011;6126;57.908;16.490;2022-12-20T11:07:00;0.73;;;0.70;;
12124;SDS011;6126;57.908;16.490;2022-12-20T11:09:52;0.85;;;0.80;;
12124;SDS011;6126;57.908;16.490;2022-12-20T11:12:21;1.00;;;0.80;;
12124;SDS011;6126;57.908;16.490;2022-12-20T11:14:47;1.05;;;0.88;;
12124;SDS011;6126;57.908;16.490;2022-12-20T11:28:42;0.90;;;0.73;;
12124;SDS011;6126;57.908;16.490;2022-12-20T11:31:43;1.52;;;0.90;;
12124;SDS011;6126;57.908;16.490;2022-12-20T11:41:16;0.98;;;0.90;;
12124;SDS011;6126;57.908;16.490;2022-12-20T11:53:36;1.42;;;1.00;;
12124;SDS011;6126;57.908;16.490;2022-12-20T11:56:29;1.25;;;1.15;;
12124;SDS011;6126;57.908;16.490;2022-12-20T12:04:34;1.25;;;1.05;;
12124;SDS011;6126;57.908;16.490;2022-12-20T12:07:18;1.65;;;1.27;;
12124;SDS011;6126;57.908;16.490;2022-12-20T12:10:05;1.52;;;1.25;;
12124;SDS011;6126;57.908;16.490;2022-12-20T12:12:49;1.75;;;1.02;;
12124;SDS011;6126;57.908;16.490;2022-12-20T12:15:30;1.50;;;1.27;;
12124;SDS011;6126;57.908;16.490;2022-12-20T12:18:28;3.25;;;1.48;;
12124;SDS011;6126;57.908;16.490;2022-12-20T12:26:30;2.58;;;1.42;;
12124;SDS011;6126;57.908;16.490;2022-12-20T12:29:05;1.73;;;1.38;;
12124;SDS011;6126;57.908;16.490;2022-12-20T12:31:47;1.73;;;1.05;;
12124;SDS011;6126;57.908;16.490;2022-12-20T12:46:17;1.48;;;1.20;;
12124;SDS011;6126;57.908;16.490;2022-12-20T12:51:52;2.67;;;1.35;;
12124;SDS011;6126;57.908;16.490;2022-12-20T12:57:10;1.02;;;0.95;;
12124;SDS011;6126;57.908;16.490;2022-12-20T12:59:44;1.90;;;1.30;;
12124;SDS011;6126;57.908;16.490;2022-12-20T13:07:45;2.60;;;1.23;;
12124;SDS011;6126;57.908;16.490;2022-12-20T13:12:46;1.10;;;1.00;;
12124;SDS011;6126;57.908;16.490;2022-12-20T13:17:48;1.63;;;1.00;;
12124;SDS011;6126;57.908;16.490;2022-12-20T13:20:32;1.15;;;0.90;;
12124;SDS011;6126;57.908;16.490;2022-12-20T13:25:39;1.65;;;1.13;;
12124;SDS011;6126;57.908;16.490;2022-12-20T13:28:48;1.10;;;0.98;;
12124;SDS011;6126;57.908;16.490;2022-12-20T13:43:50;1.63;;;1.02;;
12124;SDS011;6126;57.908;16.490;2022-12-20T13:49:44;1.23;;;1.00;;
12124;SDS011;6126;57.908;16.490;2022-12-20T13:54:49;2.65;;;1.00;;
12124;SDS011;6126;57.908;16.490;2022-12-20T13:57:28;3.67;;;1.38;;
12124;SDS011;6126;57.908;16.490;2022-12-20T14:00:16;1.10;;;1.00;;
12124;SDS011;6126;57.908;16.490;2022-12-20T14:02:49;1.83;;;1.30;;
12124;SDS011;6126;57.908;16.490;2022-12-20T14:05:21;1.48;;;1.20;;
12124;SDS011;6126;57.908;16.490;2022-12-20T14:10:33;2.08;;;1.30;;
12124;SDS011;6126;57.908;16.490;2022-12-20T14:12:59;2.05;;;1.27;;
12124;SDS011;6126;57.908;16.490;2022-12-20T14:15:32;1.25;;;1.10;;
12124;SDS011;6126;57.908;16.490;2022-12-20T14:18:14;3.08;;;1.45;;
12124;SDS011;6126;57.908;16.490;2022-12-20T14:20:49;1.27;;;1.17;;
12124;SDS011;6126;57.908;16.490;2022-12-20T14:23:21;1.70;;;1.20;;
12124;SDS011;6126;57.908;16.490;2022-12-20T14:25:53;1.88;;;1.40;;
12124;SDS011;6126;57.908;16.490;2022-12-20T14:28:37;2.33;;;1.63;;
12124;SDS011;6126;57.908;16.490;2022-12-20T14:36:41;2.97;;;1.70;;
12124;SDS011;6126;57.908;16.490;2022-12-20T14:39:26;1.85;;;1.73;;
12124;SDS011;6126;57.908;16.490;2022-12-20T14:44:37;2.53;;;1.77;;
12124;SDS011;6126;57.908;16.490;2022-12-20T14:47:14;1.77;;;1.50;;
12124;SDS011;6126;57.908;16.490;2022-12-20T14:49:51;2.10;;;1.70;;
12124;SDS011;6126;57.908;16.490;2022-12-20T15:08:10;1.80;;;1.48;;
12124;SDS011;6126;57.908;16.490;2022-12-20T15:13:46;2.65;;;1.80;;
12124;SDS011;6126;57.908;16.490;2022-12-20T15:18:46;2.28;;;1.75;;
12124;SDS011;6126;57.908;16.490;2022-12-20T15:23:50;1.70;;;1.60;;
12124;SDS011;6126;57.908;16.490;2022-12-20T15:26:20;1.52;;;1.42;;
12124;SDS011;6126;57.908;16.490;2022-12-20T15:28:49;1.45;;;1.27;;
12124;SDS011;6126;57.908;16.490;2022-12-20T15:31:16;2.42;;;1.52;;
12124;SDS011;6126;57.908;16.490;2022-12-20T15:33:45;2.03;;;1.60;;
12124;SDS011;6126;57.908;16.490;2022-12-20T15:36:12;1.75;;;1.50;;
12124;SDS011;6126;57.908;16.490;2022-12-20T15:38:40;1.58;;;1.25;;
12124;SDS011;6126;57.908;16.490;2022-12-20T15:41:07;1.90;;;1.60;;
12124;SDS011;6126;57.908;16.490;2022-12-20T15:43:57;1.52;;;1.33;;
12124;SDS011;6126;57.908;16.490;2022-12-20T15:46:38;1.55;;;1.30;;
12124;SDS011;6126;57.908;16.490;2022-12-20T15:49:04;2.97;;;1.60;;
12124;SDS011;6126;57.908;16.490;2022-12-20T15:51:31;2.00;;;1.50;;
12124;SDS011;6126;57.908;16.490;2022-12-20T15:53:59;1.48;;;1.20;;
12124;SDS011;6126;57.908;16.490;2022-12-20T15:56:28;1.92;;;1.25;;
12124;SDS011;6126;57.908;16.490;2022-12-20T15:58:54;1.67;;;1.55;;
12124;SDS011;6126;57.908;16.490;2022-12-20T16:01:24;2.38;;;1.67;;
12124;SDS011;6126;57.908;16.490;2022-12-20T16:03:57;1.35;;;1.17;;
12124;SDS011;6126;57.908;16.490;2022-12-20T16:06:23;2.13;;;1.60;;
12124;SDS011;6126;57.908;16.490;2022-12-20T16:08:49;1.33;;;1.20;;
12124;SDS011;6126;57.908;16.490;2022-12-20T16:11:18;1.60;;;1.40;;
12124;SDS011;6126;57.908;16.490;2022-12-20T16:13:51;1.40;;;1.30;;
12124;SDS011;6126;57.908;16.490;2022-12-20T16:16:20;2.45;;;1.35;;
12124;SDS011;6126;57.908;16.490;2022-12-20T16:18:48;1.20;;;1.00;;
12124;SDS011;6126;57.908;16.490;2022-12-20T16:21:26;1.58;;;1.25;;
12124;SDS011;6126;57.908;16.490;2022-12-20T16:23:56;1.75;;;1.40;;
12124;SDS011;6126;57.908;16.490;2022-12-20T16:26:23;1.48;;;1.17;;
12124;SDS011;6126;57.908;16.490;2022-12-20T16:28:50;1.40;;;1.25;;
12124;SDS011;6126;57.908;16.490;2022-12-20T16:33:57;1.38;;;1.20;;
12124;SDS011;6126;57.908;16.490;2022-12-20T16:36:27;1.10;;;1.00;;
12124;SDS011;6126;57.908;16.490;2022-12-20T16:38:53;1.40;;;1.27;;
12124;SDS011;6126;57.908;16.490;2022-12-20T16:41:21;1.20;;;1.10;;
12124;SDS011;6126;57.908;16.490;2022-12-20T16:43:52;1.17;;;1.08;;
12124;SDS011;6126;57.908;16.490;2022-12-20T16:46:20;1.55;;;1.38;;
12124;SDS011;6126;57.908;16.490;2022-12-20T16:48:51;2.25;;;1.60;;
12124;SDS011;6126;57.908;16.490;2022-12-20T16:51:38;2.83;;;1.38;;
12124;SDS011;6126;57.908;16.490;2022-12-20T16:54:12;1.77;;;1.40;;
12124;SDS011;6126;57.908;16.490;2022-12-20T16:56:44;1.58;;;1.30;;
12124;SDS011;6126;57.908;16.490;2022-12-20T16:59:15;2.00;;;1.40;;
12124;SDS011;6126;57.908;16.490;2022-12-20T17:01:41;1.55;;;1.30;;
12124;SDS011;6126;57.908;16.490;2022-12-20T17:04:12;1.20;;;1.10;;
12124;SDS011;6126;57.908;16.490;2022-12-20T17:06:41;2.00;;;1.33;;
12124;SDS011;6126;57.908;16.490;2022-12-20T17:09:08;1.98;;;1.42;;
12124;SDS011;6126;57.908;16.490;2022-12-20T17:11:35;1.52;;;1.42;;
12124;SDS011;6126;57.908;16.490;2022-12-20T17:14:01;2.42;;;1.20;;
12124;SDS011;6126;57.908;16.490;2022-12-20T17:16:28;1.67;;;1.27;;
12124;SDS011;6126;57.908;16.490;2022-12-20T17:18:55;1.52;;;1.25;;
12124;SDS011;6126;57.908;16.490;2022-12-20T17:24:00;1.50;;;1.27;;
12124;SDS011;6126;57.908;16.490;2022-12-20T17:26:30;1.20;;;1.02;;
12124;SDS011;6126;57.908;16.490;2022-12-20T17:28:57;1.08;;;1.00;;
12124;SDS011;6126;57.908;16.490;2022-12-20T17:31:32;1.45;;;1.17;;
12124;SDS011;6126;57.908;16.490;2022-12-20T17:34:04;1.30;;;1.10;;
12124;SDS011;6126;57.908;16.490;2022-12-20T17:37:07;1.27;;;1.17;;
12124;SDS011;6126;57.908;16.490;2022-12-20T17:39:33;1.60;;;1.10;;
12124;SDS011;6126;57.908;16.490;2022-12-20T17:41:59;1.02;;;0.93;;
12124;SDS011;6126;57.908;16.490;2022-12-20T17:44:25;2.08;;;1.38;;
12124;SDS011;6126;57.908;16.490;2022-12-20T17:46:53;1.77;;;1.33;;
12124;SDS011;6126;57.908;16.490;2022-12-20T17:49:21;1.20;;;1.10;;
12124;SDS011;6126;57.908;16.490;2022-12-20T17:51:48;1.40;;;1.30;;
12124;SDS011;6126;57.908;16.490;2022-12-20T17:54:22;1.38;;;1.27;;
12124;SDS011;6126;57.908;16.490;2022-12-20T17:56:50;1.75;;;1.40;;